MST,Max TemperatureF,Mean TemperatureF,Min TemperatureF,Max Dew PointF,MeanDew PointF,Min DewpointF,Max Humidity, Mean Humidity, Min Humidity, Max Sea Level PressureIn, Mean Sea Level PressureIn, Min Sea Level PressureIn, Max VisibilityMiles, Mean VisibilityMiles, Min VisibilityMiles, Max Wind SpeedMPH, Mean Wind SpeedMPH, Max Gust SpeedMPH,PrecipitationIn, CloudCover, Events, WindDirDegrees
2013-1-1,31,24,16,25,20,9,92,80,68,30.33,30.18,30.06,10,7,0,18,11,25,T,7,Fog-Snow,293
2013-1-2,26,18,9,11,5,-2,70,63,55,30.46,30.40,30.32,10,10,10,16,9,16,0.00,0,,249
2013-1-3,41,26,11,19,6,-1,62,47,32,30.34,30.23,30.14,10,10,10,12,5,13,0.00,0,,144
2013-1-4,41,30,19,23,17,9,69,58,46,30.17,30.14,30.09,10,10,10,26,10,35,0.00,2,,229
2013-1-5,38,27,15,23,15,7,84,64,44,30.30,30.22,30.08,10,10,10,15,5,18,0.00,1,,168
2013-1-6,41,30,18,27,17,6,77,63,48,30.06,29.94,29.87,10,10,10,26,13,31,0.00,1,,241
2013-1-7,40,31,21,28,23,17,75,65,54,29.94,29.77,29.59,10,9,2,28,14,35,T,5,Snow,239
2013-1-8,39,31,23,28,21,16,85,65,44,30.03,29.86,29.65,10,10,10,32,14,41,0.00,4,,285
2013-1-9,47,41,35,27,25,20,59,47,34,29.95,29.80,29.62,10,10,10,31,17,38,0.00,0,,221
2013-1-10,42,25,8,27,15,3,92,69,46,29.92,29.68,29.55,10,3,0,21,12,28,0.07,7,Fog-Snow,292
2013-1-11,8,5,2,4,0,-2,95,88,80,30.30,29.94,29.73,10,3,0,20,13,25,T,8,Fog-Snow,298
2013-1-12,12,7,1,9,2,-4,95,82,69,30.30,30.20,30.01,10,8,1,16,7,22,T,7,Snow,254
2013-1-13,15,8,0,9,5,-3,87,80,73,30.31,30.18,30.01,10,6,1,17,10,25,T,8,Snow,275
2013-1-14,26,17,8,25,11,0,92,73,53,30.23,30.05,29.88,10,5,1,21,13,25,0.08,7,Snow,246
2013-1-15,39,32,25,27,24,21,92,76,59,30.14,30.03,29.90,10,7,1,31,20,37,0.02,7,Snow,273
2013-1-16,39,31,22,23,19,17,75,60,44,30.35,30.22,30.10,10,10,10,25,11,31,0.00,0,,244
2013-1-17,43,32,21,24,20,15,74,57,39,30.37,30.21,29.97,10,10,10,33,16,37,0.00,0,,240
2013-1-18,45,39,33,23,20,17,56,47,37,30.03,29.94,29.87,10,10,10,24,14,29,0.00,1,,260
2013-1-19,39,30,20,23,19,14,88,63,37,30.34,30.20,30.04,10,10,10,23,7,30,0.00,1,,252
2013-1-20,29,21,13,18,12,9,91,75,58,30.57,30.45,30.29,10,7,2,24,9,31,T,8,Snow,290
2013-1-21,35,25,14,19,14,9,96,74,51,30.38,30.19,30.07,10,10,7,14,3,16,0.00,3,,190
2013-1-22,43,31,18,19,14,7,58,46,34,30.14,30.10,30.07,10,10,10,16,9,17,0.00,0,,218
2013-1-23,45,32,18,24,16,13,84,61,37,30.21,30.09,29.85,10,10,10,28,11,33,0.00,1,,132
2013-1-24,45,33,21,27,22,15,75,58,40,30.12,29.97,29.83,10,10,10,28,15,38,0.00,1,,270
2013-1-25,43,32,21,30,25,15,77,66,55,30.09,30.00,29.88,10,10,10,16,10,20,0.00,1,,219
2013-1-26,48,40,31,31,30,26,100,75,49,29.88,29.78,29.69,10,9,3,25,9,32,T,6,Snow,231
2013-1-27,32,28,24,31,26,16,100,82,63,29.87,29.80,29.74,10,8,1,9,5,14,0.03,6,Snow,261
2013-1-28,32,25,17,17,14,11,77,58,39,29.88,29.82,29.72,10,10,10,17,10,24,0.00,3,,245
2013-1-29,27,10,-8,21,6,-10,96,80,63,30.33,29.95,29.64,10,4,0,24,10,30,0.04,7,Fog-Snow,291
2013-1-30,30,15,0,22,13,-2,96,80,63,30.19,29.96,29.78,10,3,0,18,8,21,0.08,8,Fog-Snow,286
2013-1-31,35,18,0,28,7,-3,95,79,63,30.30,30.16,30.03,10,5,0,13,4,16,0.11,8,Fog-Snow,254